Time;durP1;ratioP1;P1;durP2;ratioP2;P2;SDS_P1;SDS_P2;PMS_P1;PMS_P2;Temp;Humidity;BMP_temperature;BMP_pressure;BME280_temperature;BME280_humidity;BME280_pressure;Samples;Min_cycle;Max_cycle;Signal;HPM_P1;HPM_P2
2024/02/01 00:01:19;;;;;;;0.28;0.15;;;;;;;;;;5041746;28;20045;-86
2024/02/01 00:03:45;;;;;;;0.20;0.10;;;;;;;;;;5045990;28;20036;-82
2024/02/01 00:06:11;;;;;;;0.20;0.10;;;;;;;;;;5043511;28;20729;-86
2024/02/01 00:08:37;;;;;;;0.20;0.10;;;;;;;;;;5042157;28;20033;-86
2024/02/01 00:11:03;;;;;;;0.20;0.10;;;;;;;;;;5025446;28;20041;-85
2024/02/01 00:13:29;;;;;;;0.20;0.10;;;;;;;;;;5047244;28;20401;-83
2024/02/01 00:15:56;;;;;;;0.20;0.10;;;;;;;;;;5031008;28;20036;-85
2024/02/01 00:18:24;;;;;;;0.40;0.35;;;;;;;;;;5042544;28;20469;-84
2024/02/01 00:20:50;;;;;;;0.20;0.10;;;;;;;;;;5039523;28;20093;-85
2024/02/01 00:23:17;;;;;;;0.20;0.10;;;;;;;;;;5018828;28;20033;-83
2024/02/01 00:25:43;;;;;;;0.20;0.10;;;;;;;;;;5037403;28;20048;-83
2024/02/01 00:28:09;;;;;;;0.43;0.20;;;;;;;;;;5039130;28;20071;-84
2024/02/01 00:30:37;;;;;;;0.20;0.10;;;;;;;;;;5016612;28;20601;-83
2024/02/01 00:33:03;;;;;;;0.20;0.10;;;;;;;;;;5043277;28;20208;-83
2024/02/01 00:35:29;;;;;;;0.20;0.10;;;;;;;;;;5043065;28;20115;-85
2024/02/01 00:37:55;;;;;;;0.20;0.10;;;;;;;;;;5042158;28;20090;-82
2024/02/01 00:40:21;;;;;;;0.20;0.10;;;;;;;;;;5024689;28;20533;-83
2024/02/01 00:42:47;;;;;;;0.30;0.22;;;;;;;;;;5041880;28;20040;-84
2024/02/01 00:45:13;;;;;;;0.20;0.10;;;;;;;;;;5045240;28;20040;-84
2024/02/01 00:47:39;;;;;;;0.20;0.00;;;;;;;;;;5028237;28;20086;-84
2024/02/01 00:50:05;;;;;;;1.58;0.30;;;;;;;;;;5027853;28;20086;-85
2024/02/01 00:52:31;;;;;;;0.20;0.10;;;;;;;;;;5043535;28;20047;-83
2024/02/01 00:54:57;;;;;;;0.20;0.10;;;;;;;;;;5058771;28;20040;-84
2024/02/01 00:57:23;;;;;;;0.20;0.10;;;;;;;;;;5040797;28;20077;-81
2024/02/01 00:59:49;;;;;;;0.20;0.10;;;;;;;;;;5037861;28;20033;-87
2024/02/01 01:02:16;;;;;;;0.20;0.10;;;;;;;;;;5034097;28;20040;-83
2024/02/01 01:04:44;;;;;;;0.20;0.00;;;;;;;;;;5043641;28;20036;-85
2024/02/01 01:07:13;;;;;;;0.20;0.10;;;;;;;;;;5050101;28;20060;-88
2024/02/01 01:09:39;;;;;;;0.20;0.10;;;;;;;;;;5045690;28;20048;-85
2024/02/01 01:12:17;;;;;;;5.15;0.85;;;;;;;;;;5051150;28;20123;-85
2024/02/01 01:14:45;;;;;;;0.20;0.10;;;;;;;;;;5054452;28;20125;-83
2024/02/01 01:17:11;;;;;;;0.20;0.10;;;;;;;;;;5043599;28;20033;-84
2024/02/01 01:19:37;;;;;;;0.20;0.10;;;;;;;;;;5041855;28;20090;-82
2024/02/01 01:22:04;;;;;;;0.20;0.10;;;;;;;;;;5040307;28;20108;-86
2024/02/01 01:24:30;;;;;;;0.20;0.10;;;;;;;;;;5036400;28;20075;-85
2024/02/01 01:27:05;;;;;;;0.20;0.03;;;;;;;;;;5040147;28;20036;-85
2024/02/01 01:29:48;;;;;;;0.20;0.03;;;;;;;;;;5040315;28;20408;-86
2024/02/01 01:32:17;;;;;;;0.20;0.15;;;;;;;;;;5044655;28;20041;-87
2024/02/01 01:34:43;;;;;;;0.20;0.03;;;;;;;;;;5026995;28;20055;-86
2024/02/01 01:37:17;;;;;;;0.20;0.00;;;;;;;;;;5035220;28;20033;-86
2024/02/01 01:39:43;;;;;;;0.20;0.00;;;;;;;;;;5070696;28;20032;-88
2024/02/01 01:42:09;;;;;;;0.20;0.13;;;;;;;;;;5047994;28;20553;-86
2024/02/01 01:44:41;;;;;;;0.20;0.10;;;;;;;;;;5041928;28;20048;-88
2024/02/01 01:47:31;;;;;;;0.20;0.10;;;;;;;;;;5041359;28;20390;-89
2024/02/01 01:49:57;;;;;;;0.20;0.10;;;;;;;;;;5047087;28;20413;-87
2024/02/01 01:52:23;;;;;;;0.20;0.10;;;;;;;;;;5020061;28;20094;-84
2024/02/01 01:54:51;;;;;;;0.20;0.10;;;;;;;;;;5030487;28;20037;-85
2024/02/01 01:57:18;;;;;;;0.20;0.10;;;;;;;;;;5047467;28;20091;-88
2024/02/01 01:59:44;;;;;;;0.20;0.00;;;;;;;;;;5043036;28;22195;-85
2024/02/01 02:02:10;;;;;;;0.20;0.10;;;;;;;;;;5061291;28;20408;-84
2024/02/01 02:04:36;;;;;;;0.20;0.10;;;;;;;;;;5060018;28;20400;-82
2024/02/01 02:07:03;;;;;;;0.20;0.00;;;;;;;;;;5048178;28;20056;-85
2024/02/01 02:09:29;;;;;;;0.20;0.08;;;;;;;;;;5042368;28;20485;-85
2024/02/01 02:11:55;;;;;;;0.20;0.10;;;;;;;;;;5043642;28;20052;-86
2024/02/01 02:14:21;;;;;;;0.20;0.10;;;;;;;;;;5045841;28;20036;-85
2024/02/01 02:16:47;;;;;;;0.20;0.00;;;;;;;;;;5027408;28;20067;-86
2024/02/01 02:19:13;;;;;;;0.52;0.20;;;;;;;;;;5036860;28;20033;-86
2024/02/01 02:21:45;;;;;;;0.20;0.10;;;;;;;;;;5023411;28;20094;-83
2024/02/01 02:24:12;;;;;;;0.20;0.00;;;;;;;;;;5017877;23;20048;-78
2024/02/01 02:26:38;;;;;;;0.20;0.00;;;;;;;;;;5015969;28;20051;-81
2024/02/01 02:29:04;;;;;;;0.20;0.00;;;;;;;;;;5012959;28;20047;-79
2024/02/01 02:31:30;;;;;;;0.20;0.00;;;;;;;;;;5000117;28;20029;-82
2024/02/01 02:33:56;;;;;;;0.20;0.00;;;;;;;;;;4995982;28;20076;-80
2024/02/01 02:36:22;;;;;;;0.20;0.10;;;;;;;;;;5004742;28;20425;-79
2024/02/01 02:38:48;;;;;;;0.20;0.10;;;;;;;;;;5015207;28;20476;-83
2024/02/01 02:41:14;;;;;;;0.20;0.10;;;;;;;;;;5014835;28;20041;-80
2024/02/01 02:43:40;;;;;;;0.20;0.10;;;;;;;;;;5004644;28;20041;-79
2024/02/01 02:46:06;;;;;;;0.20;0.10;;;;;;;;;;5020122;28;20536;-78
2024/02/01 02:48:33;;;;;;;0.20;0.00;;;;;;;;;;5020549;28;20050;-80
2024/02/01 02:50:59;;;;;;;0.20;0.00;;;;;;;;;;5010790;28;20124;-80
2024/02/01 02:53:25;;;;;;;0.20;0.10;;;;;;;;;;5011867;28;20039;-80
2024/02/01 02:55:51;;;;;;;0.20;0.10;;;;;;;;;;5015944;28;20045;-81
2024/02/01 02:58:17;;;;;;;0.20;0.10;;;;;;;;;;5017998;28;20029;-81
2024/02/01 03:00:43;;;;;;;0.20;0.10;;;;;;;;;;4997962;28;20045;-79
2024/02/01 03:03:09;;;;;;;0.20;0.00;;;;;;;;;;5003316;28;20046;-81
2024/02/01 03:05:35;;;;;;;0.20;0.10;;;;;;;;;;5016783;28;20041;-80
2024/02/01 03:08:04;;;;;;;0.20;0.10;;;;;;;;;;5013439;28;20128;-81
2024/02/01 03:10:30;;;;;;;0.20;0.10;;;;;;;;;;4996998;28;20099;-80
2024/02/01 03:12:56;;;;;;;0.20;0.00;;;;;;;;;;5016695;28;20037;-81
2024/02/01 03:15:22;;;;;;;0.20;0.00;;;;;;;;;;5000898;28;20206;-81
2024/02/01 03:17:49;;;;;;;0.20;0.00;;;;;;;;;;5005408;28;20033;-80
2024/02/01 03:20:18;;;;;;;0.20;0.00;;;;;;;;;;5007044;28;20041;-79
2024/02/01 03:22:45;;;;;;;0.20;0.10;;;;;;;;;;5021599;28;20048;-81
2024/02/01 03:25:12;;;;;;;0.20;0.10;;;;;;;;;;5015939;28;20076;-78
2024/02/01 03:27:42;;;;;;;0.20;0.10;;;;;;;;;;5006695;28;20076;-79
2024/02/01 03:30:11;;;;;;;0.20;0.10;;;;;;;;;;5007063;28;20068;-79
2024/02/01 03:32:37;;;;;;;0.20;0.10;;;;;;;;;;5018705;28;20106;-78
2024/02/01 03:35:04;;;;;;;0.20;0.10;;;;;;;;;;5020330;28;20598;-79
2024/02/01 03:37:30;;;;;;;0.20;0.10;;;;;;;;;;5020304;28;20029;-81
2024/02/01 03:39:56;;;;;;;0.20;0.00;;;;;;;;;;5000376;28;20033;-81
2024/02/01 03:42:22;;;;;;;0.20;0.20;;;;;;;;;;5006947;28;20137;-81
2024/02/01 03:44:48;;;;;;;0.20;0.00;;;;;;;;;;5004760;28;20052;-81
2024/02/01 03:47:14;;;;;;;0.20;0.00;;;;;;;;;;5006476;28;20036;-81
2024/02/01 03:49:40;;;;;;;0.20;0.10;;;;;;;;;;5020029;28;20528;-81
2024/02/01 03:52:09;;;;;;;0.30;0.20;;;;;;;;;;5011084;28;20033;-80
2024/02/01 03:54:36;;;;;;;0.20;0.10;;;;;;;;;;5020973;28;20048;-78
2024/02/01 03:57:02;;;;;;;0.20;0.05;;;;;;;;;;5014183;28;20132;-81
2024/02/01 03:59:29;;;;;;;0.20;0.10;;;;;;;;;;5020669;28;20528;-80
2024/02/01 04:02:03;;;;;;;0.20;0.10;;;;;;;;;;5014502;28;20289;-80
2024/02/01 04:04:29;;;;;;;0.20;0.10;;;;;;;;;;5021362;28;20052;-80
2024/02/01 04:06:55;;;;;;;0.20;0.10;;;;;;;;;;5020553;28;20087;-81
2024/02/01 04:09:24;;;;;;;0.20;0.10;;;;;;;;;;5017559;28;20045;-79
2024/02/01 04:11:50;;;;;;;0.30;0.15;;;;;;;;;;5001919;28;20036;-79
2024/02/01 04:14:16;;;;;;;0.20;0.10;;;;;;;;;;5018304;28;20040;-79
2024/02/01 04:16:43;;;;;;;0.20;0.10;;;;;;;;;;5018025;28;20416;-80
2024/02/01 04:19:09;;;;;;;0.20;0.10;;;;;;;;;;5019238;28;20060;-80
2024/02/01 04:21:35;;;;;;;0.20;0.10;;;;;;;;;;5002235;28;20705;-79
2024/02/01 04:24:01;;;;;;;0.20;0.10;;;;;;;;;;5021819;28;20056;-79
2024/02/01 04:26:27;;;;;;;0.20;0.10;;;;;;;;;;5022732;28;20072;-79
2024/02/01 04:28:53;;;;;;;0.20;0.10;;;;;;;;;;5002924;28;20068;-80
2024/02/01 04:31:19;;;;;;;0.20;0.10;;;;;;;;;;5014744;28;20037;-79
2024/02/01 04:33:46;;;;;;;0.20;0.10;;;;;;;;;;5002572;28;20118;-80
2024/02/01 04:36:12;;;;;;;0.20;0.10;;;;;;;;;;5014828;28;20033;-80
2024/02/01 04:38:38;;;;;;;0.20;0.10;;;;;;;;;;5018461;28;20079;-79
2024/02/01 04:41:10;;;;;;;0.20;0.00;;;;;;;;;;5008650;28;20497;-78
2024/02/01 04:43:36;;;;;;;;;;;;;;;;;;5018680;28;20091;-80
2024/02/01 04:46:02;;;;;;;0.20;0.10;;;;;;;;;;5022264;28;19920;-80
2024/02/01 04:48:29;;;;;;;0.20;0.10;;;;;;;;;;5006105;28;20037;-77
2024/02/01 04:50:55;;;;;;;0.20;0.10;;;;;;;;;;5008271;28;20045;-80
2024/02/01 04:53:21;;;;;;;0.20;0.10;;;;;;;;;;5016614;28;20047;-80
2024/02/01 04:55:50;;;;;;;0.20;0.10;;;;;;;;;;5004890;28;20466;-79
2024/02/01 04:58:16;;;;;;;0.20;0.10;;;;;;;;;;5021572;28;20666;-80
2024/02/01 05:00:42;;;;;;;0.20;0.10;;;;;;;;;;5009136;28;22853;-78
2024/02/01 05:03:08;;;;;;;0.20;0.10;;;;;;;;;;5017781;28;20037;-79
2024/02/01 05:05:36;;;;;;;0.20;0.10;;;;;;;;;;5016817;28;21856;-80
2024/02/01 05:08:02;;;;;;;0.20;0.00;;;;;;;;;;5002477;28;20659;-80
2024/02/01 05:10:28;;;;;;;0.20;0.03;;;;;;;;;;5013624;28;20428;-79
2024/02/01 05:12:54;;;;;;;0.20;0.10;;;;;;;;;;5034448;28;20025;-80
2024/02/01 05:15:20;;;;;;;0.20;0.10;;;;;;;;;;5016159;28;20095;-81
2024/02/01 05:17:46;;;;;;;0.20;0.10;;;;;;;;;;4999967;28;20047;-80
2024/02/01 05:20:12;;;;;;;0.20;0.10;;;;;;;;;;5006319;28;20482;-80
2024/02/01 05:22:39;;;;;;;0.20;0.10;;;;;;;;;;5017105;28;20044;-80
2024/02/01 05:25:14;;;;;;;0.20;0.10;;;;;;;;;;5005244;28;20045;-80
2024/02/01 05:27:53;;;;;;;0.20;0.00;;;;;;;;;;5023161;28;20457;-79
2024/02/01 05:30:20;;;;;;;0.20;0.10;;;;;;;;;;5020747;28;20398;-80
2024/02/01 05:32:52;;;;;;;0.20;0.10;;;;;;;;;;5028637;28;20037;-80
2024/02/01 05:35:18;;;;;;;;;;;;;;;;;;5007079;28;20053;-80
2024/02/01 05:37:46;;;;;;;0.95;0.95;;;;;;;;;;5015927;28;19979;-80
2024/02/01 05:40:16;;;;;;;0.20;0.10;;;;;;;;;;5023624;28;20041;-80
2024/02/01 05:42:44;;;;;;;0.20;0.10;;;;;;;;;;4999623;28;20041;-78
2024/02/01 05:45:10;;;;;;;0.20;0.10;;;;;;;;;;4999919;28;20132;-80
2024/02/01 05:47:36;;;;;;;0.20;0.10;;;;;;;;;;5015211;28;20045;-79
2024/02/01 05:50:04;;;;;;;0.20;0.10;;;;;;;;;;4996062;28;20213;-79
2024/02/01 05:52:30;;;;;;;0.20;0.10;;;;;;;;;;5017792;28;20119;-80
2024/02/01 05:54:56;;;;;;;0.20;0.10;;;;;;;;;;5019216;28;20052;-79
2024/02/01 05:57:22;;;;;;;0.20;0.10;;;;;;;;;;5020679;28;20033;-80
2024/02/01 05:59:48;;;;;;;0.20;0.10;;;;;;;;;;5021558;28;20436;-82
2024/02/01 06:02:14;;;;;;;0.20;0.10;;;;;;;;;;5018256;28;20060;-79
2024/02/01 06:04:41;;;;;;;0.20;0.10;;;;;;;;;;4999708;28;20041;-79
2024/02/01 06:07:07;;;;;;;0.20;0.10;;;;;;;;;;5006518;28;20045;-79
2024/02/01 06:09:33;;;;;;;0.20;0.10;;;;;;;;;;5013072;28;20474;-80
2024/02/01 06:11:59;;;;;;;0.20;0.00;;;;;;;;;;5010595;28;20037;-79
2024/02/01 06:14:25;;;;;;;0.20;0.08;;;;;;;;;;5011220;28;20052;-79
2024/02/01 06:16:51;;;;;;;0.20;0.10;;;;;;;;;;5015527;28;20238;-80
2024/02/01 06:19:18;;;;;;;0.20;0.10;;;;;;;;;;4996797;28;20039;-80
2024/02/01 06:21:44;;;;;;;0.20;0.05;;;;;;;;;;5013941;28;20041;-80
2024/02/01 06:24:10;;;;;;;0.20;0.00;;;;;;;;;;5015831;28;20052;-79
2024/02/01 06:26:36;;;;;;;0.20;0.10;;;;;;;;;;5001039;28;20034;-81
2024/02/01 06:29:09;;;;;;;0.85;0.45;;;;;;;;;;5021086;28;20048;-79
2024/02/01 06:31:38;;;;;;;0.20;0.10;;;;;;;;;;5005265;28;20032;-78
2024/02/01 06:34:08;;;;;;;0.20;0.10;;;;;;;;;;4998298;28;20048;-79
2024/02/01 06:36:39;;;;;;;0.20;0.10;;;;;;;;;;5025104;28;20080;-80
2024/02/01 06:41:46;;;;;;;0.20;0.00;;;;;;;;;;5027356;28;20132;-80
2024/02/01 06:44:24;;;;;;;0.20;0.10;;;;;;;;;;5030610;28;20056;-80
2024/02/01 06:49:39;;;;;;;;;;;;;;;;;;5035421;28;20053;-79
2024/02/01 06:55:06;;;;;;;0.20;0.10;;;;;;;;;;5051020;28;20556;-81
2024/02/01 06:57:48;;;;;;;0.20;0.10;;;;;;;;;;5018299;28;20072;-79
2024/02/01 07:03:12;;;;;;;0.20;0.10;;;;;;;;;;5028475;28;20328;-80
2024/02/01 07:08:44;;;;;;;0.20;0.10;;;;;;;;;;5023201;28;20432;-79
2024/02/01 07:16:21;;;;;;;0.20;0.10;;;;;;;;;;5021294;28;20052;-79
2024/02/01 07:19:13;;;;;;;0.20;0.10;;;;;;;;;;5018722;28;20110;-80
2024/02/01 07:24:38;;;;;;;0.20;0.10;;;;;;;;;;5021422;28;20045;-79
2024/02/01 08:00:17;;;;;;;0.20;0.10;;;;;;;;;;5036960;28;20219;-79
2024/02/01 08:08:14;;;;;;;0.20;0.10;;;;;;;;;;5021556;28;20048;-80
2024/02/01 08:10:40;;;;;;;0.20;0.10;;;;;;;;;;5024032;28;20960;-79
2024/02/01 08:13:07;;;;;;;0.20;0.10;;;;;;;;;;5010101;28;20047;-80
2024/02/01 08:15:37;;;;;;;0.20;0.00;;;;;;;;;;5029151;28;20052;-78
2024/02/01 08:18:05;;;;;;;0.20;0.10;;;;;;;;;;5028397;28;20091;-80
2024/02/01 08:20:34;;;;;;;0.20;0.10;;;;;;;;;;5027260;28;20118;-80
2024/02/01 08:23:01;;;;;;;0.20;0.10;;;;;;;;;;5039672;22;20418;-87
2024/02/01 08:25:30;;;;;;;0.20;0.10;;;;;;;;;;5048221;28;20042;-87
2024/02/01 08:28:00;;;;;;;0.20;0.10;;;;;;;;;;5016789;28;20578;-87
2024/02/01 08:30:31;;;;;;;0.20;0.10;;;;;;;;;;5030988;28;20041;-87
2024/02/01 08:33:03;;;;;;;0.20;0.10;;;;;;;;;;5029969;28;20040;-87
2024/02/01 08:35:33;;;;;;;0.20;0.10;;;;;;;;;;5012296;28;20041;-87
2024/02/01 08:38:02;;;;;;;0.20;0.10;;;;;;;;;;5006704;28;21713;-88
2024/02/01 08:40:28;;;;;;;0.20;0.10;;;;;;;;;;5021961;28;20047;-86
2024/02/01 08:43:01;;;;;;;0.20;0.10;;;;;;;;;;5025155;28;20041;-89
2024/02/01 08:45:28;;;;;;;0.20;0.10;;;;;;;;;;5041416;28;20146;-88
2024/02/01 08:48:00;;;;;;;0.28;0.20;;;;;;;;;;5013639;28;20044;-87
2024/02/01 08:50:29;;;;;;;0.20;0.10;;;;;;;;;;5007487;28;20072;-89
2024/02/01 08:52:55;;;;;;;0.20;0.10;;;;;;;;;;5020938;28;20048;-86
2024/02/01 08:55:29;;;;;;;0.20;0.10;;;;;;;;;;5005498;28;20052;-91
2024/02/01 08:57:55;;;;;;;0.20;0.05;;;;;;;;;;5025027;28;20488;-85
2024/02/01 09:00:25;;;;;;;0.20;0.10;;;;;;;;;;5015798;28;20032;-85
2024/02/01 09:03:03;;;;;;;0.20;0.00;;;;;;;;;;5012482;28;20040;-87
2024/02/01 09:05:40;;;;;;;0.25;0.25;;;;;;;;;;5039870;28;20120;-85
2024/02/01 09:08:16;;;;;;;0.20;0.10;;;;;;;;;;5023643;28;20525;-86
2024/02/01 09:11:00;;;;;;;0.20;0.10;;;;;;;;;;5018573;28;20717;-86
2024/02/01 09:13:28;;;;;;;0.20;0.00;;;;;;;;;;5022884;28;20072;-88
2024/02/01 09:15:54;;;;;;;0.20;0.10;;;;;;;;;;5041891;28;20193;-85
2024/02/01 09:18:26;;;;;;;0.20;0.10;;;;;;;;;;5041530;28;20041;-88
2024/02/01 09:20:53;;;;;;;0.20;0.10;;;;;;;;;;5015281;28;20063;-87
2024/02/01 09:23:22;;;;;;;0.20;0.10;;;;;;;;;;5022327;28;21185;-83
2024/02/01 09:25:49;;;;;;;0.20;0.10;;;;;;;;;;5022602;28;20429;-87
2024/02/01 09:28:15;;;;;;;0.20;0.10;;;;;;;;;;5006661;28;21612;-87
2024/02/01 09:30:55;;;;;;;0.20;0.10;;;;;;;;;;5023749;28;20047;-85
2024/02/01 09:33:28;;;;;;;0.20;0.10;;;;;;;;;;5023179;28;20091;-84
2024/02/01 09:36:03;;;;;;;0.20;0.10;;;;;;;;;;5024422;28;20124;-86
2024/02/01 09:38:29;;;;;;;0.20;0.10;;;;;;;;;;5023311;28;20041;-87
2024/02/01 09:40:56;;;;;;;0.20;0.10;;;;;;;;;;5021077;28;20033;-82
2024/02/01 09:43:22;;;;;;;0.20;0.03;;;;;;;;;;5020633;28;20047;-87
2024/02/01 09:45:51;;;;;;;0.20;0.10;;;;;;;;;;5022384;28;20356;-87
2024/02/01 09:48:18;;;;;;;0.20;0.10;;;;;;;;;;5023147;28;20191;-85
2024/02/01 09:50:54;;;;;;;0.20;0.10;;;;;;;;;;5039757;28;21531;-87
2024/02/01 09:53:21;;;;;;;0.20;0.00;;;;;;;;;;5023287;28;20052;-81
2024/02/01 09:55:58;;;;;;;0.20;0.10;;;;;;;;;;5024153;28;20246;-85
2024/02/01 09:58:26;;;;;;;0.20;0.10;;;;;;;;;;5024453;28;20044;-84
2024/02/01 10:00:53;;;;;;;0.20;0.10;;;;;;;;;;5024842;28;20084;-87
2024/02/01 10:03:23;;;;;;;0.20;0.10;;;;;;;;;;5019341;28;20052;-88
2024/02/01 10:05:49;;;;;;;0.20;0.10;;;;;;;;;;5006189;28;20577;-82
2024/02/01 10:08:16;;;;;;;0.20;0.00;;;;;;;;;;5023760;28;20135;-81
2024/02/01 10:10:42;;;;;;;0.20;0.10;;;;;;;;;;5041222;28;20052;-86
2024/02/01 10:13:13;;;;;;;0.20;0.10;;;;;;;;;;5023675;28;20048;-84
2024/02/01 10:15:43;;;;;;;0.20;0.10;;;;;;;;;;5025015;28;20128;-83
2024/02/01 10:18:30;;;;;;;0.20;0.10;;;;;;;;;;5023402;28;20052;-84
2024/02/01 10:20:58;;;;;;;0.20;0.10;;;;;;;;;;5038217;28;20374;-84
2024/02/01 10:23:24;;;;;;;0.20;0.10;;;;;;;;;;5020251;28;21121;-84
2024/02/01 10:25:53;;;;;;;0.20;0.10;;;;;;;;;;5021505;28;20084;-85
2024/02/01 10:28:21;;;;;;;0.20;0.00;;;;;;;;;;5023011;28;20484;-81
2024/02/01 10:30:49;;;;;;;0.30;0.25;;;;;;;;;;5021805;28;20140;-84
2024/02/01 10:33:26;;;;;;;0.20;0.10;;;;;;;;;;5026818;28;20044;-82
2024/02/01 10:35:53;;;;;;;0.20;0.00;;;;;;;;;;5024190;28;20382;-84
2024/02/01 10:38:23;;;;;;;0.20;0.03;;;;;;;;;;5022085;28;20041;-83
2024/02/01 10:41:11;;;;;;;0.20;0.03;;;;;;;;;;5024792;28;20046;-83
2024/02/01 10:43:37;;;;;;;0.20;0.10;;;;;;;;;;5026067;28;20339;-85
2024/02/01 10:46:06;;;;;;;0.20;0.10;;;;;;;;;;5023906;28;20085;-84
2024/02/01 10:48:51;;;;;;;0.20;0.10;;;;;;;;;;5022056;28;20049;-86
2024/02/01 10:51:17;;;;;;;0.20;0.00;;;;;;;;;;5024874;28;20123;-83
2024/02/01 10:53:44;;;;;;;0.20;0.10;;;;;;;;;;5020182;28;20102;-81
2024/02/01 10:56:17;;;;;;;0.20;0.00;;;;;;;;;;5021530;28;20497;-84
2024/02/01 10:58:48;;;;;;;0.20;0.10;;;;;;;;;;5020526;28;20056;-83
2024/02/01 11:01:15;;;;;;;0.20;0.10;;;;;;;;;;5020889;28;20485;-80
2024/02/01 11:03:56;;;;;;;0.20;0.10;;;;;;;;;;5019300;28;20053;-85
2024/02/01 11:06:24;;;;;;;0.40;0.40;;;;;;;;;;5007984;28;20052;-83
2024/02/01 11:08:51;;;;;;;0.20;0.08;;;;;;;;;;5007453;28;20382;-83
2024/02/01 11:11:17;;;;;;;0.20;0.10;;;;;;;;;;5020970;28;20146;-82
2024/02/01 11:14:06;;;;;;;0.20;0.10;;;;;;;;;;5022692;28;20052;-83
2024/02/01 11:16:41;;;;;;;0.28;0.28;;;;;;;;;;5019872;28;20619;-85
2024/02/01 11:19:14;;;;;;;0.20;0.10;;;;;;;;;;5043024;28;20079;-84
2024/02/01 11:21:48;;;;;;;0.20;0.10;;;;;;;;;;5021970;28;20114;-85
2024/02/01 11:24:17;;;;;;;0.20;0.10;;;;;;;;;;5021019;28;20535;-85
2024/02/01 11:26:45;;;;;;;0.20;0.10;;;;;;;;;;5023484;28;20070;-81
2024/02/01 11:29:12;;;;;;;0.20;0.10;;;;;;;;;;5023034;28;20032;-84
2024/02/01 11:31:48;;;;;;;0.20;0.10;;;;;;;;;;5021677;28;20278;-81
2024/02/01 11:34:15;;;;;;;0.20;0.00;;;;;;;;;;5022679;28;20048;-83
2024/02/01 11:36:44;;;;;;;0.20;0.10;;;;;;;;;;5021220;28;20060;-84
2024/02/01 11:39:15;;;;;;;0.20;0.10;;;;;;;;;;5046094;28;20110;-81
2024/02/01 11:41:46;;;;;;;0.20;0.10;;;;;;;;;;5030133;28;20556;-84
2024/02/01 11:44:27;;;;;;;0.20;0.10;;;;;;;;;;5027707;28;20048;-84
2024/02/01 11:46:53;;;;;;;0.20;0.00;;;;;;;;;;5022805;28;20405;-83
2024/02/01 11:49:25;;;;;;;0.20;0.10;;;;;;;;;;5008234;28;20037;-82
2024/02/01 11:52:16;;;;;;;0.73;0.40;;;;;;;;;;5023283;28;20056;-82
2024/02/01 11:54:46;;;;;;;0.20;0.10;;;;;;;;;;5026184;28;20051;-83
2024/02/01 11:57:14;;;;;;;0.20;0.05;;;;;;;;;;5028692;28;20048;-83
2024/02/01 11:59:40;;;;;;;0.20;0.10;;;;;;;;;;5035391;28;20471;-83
2024/02/01 12:02:06;;;;;;;0.20;0.03;;;;;;;;;;5044674;28;20033;-83
2024/02/01 12:04:32;;;;;;;0.20;0.10;;;;;;;;;;5023352;28;20064;-79
2024/02/01 12:07:04;;;;;;;0.20;0.10;;;;;;;;;;5022798;28;20056;-86
2024/02/01 12:09:30;;;;;;;0.20;0.10;;;;;;;;;;5027883;28;20057;-86
2024/02/01 12:11:56;;;;;;;0.30;0.20;;;;;;;;;;5040531;28;20944;-84
2024/02/01 12:14:22;;;;;;;0.20;0.10;;;;;;;;;;5024981;28;20106;-83
2024/02/01 12:16:54;;;;;;;0.20;0.10;;;;;;;;;;5025274;28;20080;-86
2024/02/01 12:19:23;;;;;;;0.20;0.10;;;;;;;;;;5024819;28;20135;-86
2024/02/01 12:21:53;;;;;;;0.20;0.10;;;;;;;;;;5026565;28;20584;-86
2024/02/01 12:24:24;;;;;;;0.20;0.10;;;;;;;;;;5025817;28;20416;-82
2024/02/01 12:26:50;;;;;;;0.20;0.00;;;;;;;;;;5025758;28;20048;-84
2024/02/01 12:29:16;;;;;;;0.20;0.00;;;;;;;;;;5022949;28;20044;-84
2024/02/01 12:31:43;;;;;;;0.20;0.10;;;;;;;;;;5008168;28;20048;-80
2024/02/01 12:34:13;;;;;;;0.20;0.00;;;;;;;;;;5005525;28;20072;-81
2024/02/01 12:36:43;;;;;;;0.20;0.10;;;;;;;;;;5043055;28;20571;-83
2024/02/01 12:39:10;;;;;;;0.20;0.10;;;;;;;;;;5021192;28;20036;-82
2024/02/01 12:41:36;;;;;;;0.20;0.10;;;;;;;;;;5026211;28;20048;-85
2024/02/01 12:44:03;;;;;;;0.20;0.10;;;;;;;;;;5038636;28;20036;-83
2024/02/01 12:46:29;;;;;;;0.20;0.10;;;;;;;;;;5024252;28;20102;-82
2024/02/01 12:48:55;;;;;;;0.20;0.10;;;;;;;;;;5025789;28;20528;-82
2024/02/01 12:51:26;;;;;;;0.20;0.10;;;;;;;;;;5024937;28;20036;-83
2024/02/01 12:53:54;;;;;;;0.20;0.10;;;;;;;;;;5027505;28;20132;-82
2024/02/01 12:56:23;;;;;;;0.20;0.10;;;;;;;;;;5026506;28;20048;-84
2024/02/01 12:58:49;;;;;;;0.20;0.00;;;;;;;;;;5021405;28;20126;-85
2024/02/01 13:01:15;;;;;;;0.20;0.10;;;;;;;;;;5023318;28;20574;-83
2024/02/01 13:03:41;;;;;;;0.20;0.20;;;;;;;;;;5007206;28;20080;-83
2024/02/01 13:06:08;;;;;;;0.20;0.10;;;;;;;;;;5027179;28;20053;-81
2024/02/01 13:08:39;;;;;;;0.20;0.03;;;;;;;;;;5017638;28;20048;-83
2024/02/01 13:11:08;;;;;;;0.20;0.10;;;;;;;;;;5026142;28;20075;-83
2024/02/01 13:13:35;;;;;;;0.20;0.10;;;;;;;;;;5028345;28;20509;-82
2024/02/01 13:16:01;;;;;;;0.20;0.10;;;;;;;;;;5016701;28;20090;-84
2024/02/01 13:18:27;;;;;;;0.20;0.10;;;;;;;;;;5011891;28;20040;-83
2024/02/01 13:20:57;;;;;;;0.20;0.10;;;;;;;;;;5024591;28;20584;-86
2024/02/01 13:23:23;;;;;;;0.20;0.10;;;;;;;;;;5024538;28;20456;-83
2024/02/01 13:25:50;;;;;;;0.20;0.10;;;;;;;;;;5026229;28;20036;-82
2024/02/01 13:28:17;;;;;;;0.20;0.10;;;;;;;;;;5008244;28;20049;-83
2024/02/01 13:30:43;;;;;;;0.20;0.10;;;;;;;;;;5040913;28;20053;-84
2024/02/01 13:33:15;;;;;;;0.20;0.10;;;;;;;;;;5016670;28;20120;-84
2024/02/01 13:35:41;;;;;;;0.20;0.10;;;;;;;;;;5021497;28;20063;-81
2024/02/01 13:38:11;;;;;;;0.20;0.00;;;;;;;;;;5024849;28;20720;-83
2024/02/01 13:40:47;;;;;;;0.20;0.10;;;;;;;;;;5007742;28;20049;-86
2024/02/01 13:43:13;;;;;;;0.20;0.10;;;;;;;;;;5020912;28;20047;-84
2024/02/01 13:45:39;;;;;;;0.20;0.00;;;;;;;;;;5042040;28;20402;-85
2024/02/01 13:48:05;;;;;;;0.20;0.10;;;;;;;;;;5020007;28;20036;-84
2024/02/01 13:50:31;;;;;;;0.20;0.00;;;;;;;;;;5024033;28;20075;-86
2024/02/01 13:52:58;;;;;;;0.20;0.00;;;;;;;;;;5007564;28;20056;-86
2024/02/01 13:55:25;;;;;;;0.20;0.10;;;;;;;;;;5023804;28;20044;-86
2024/02/01 13:57:54;;;;;;;0.20;0.10;;;;;;;;;;5011616;28;20045;-86
2024/02/01 14:00:20;;;;;;;0.20;0.10;;;;;;;;;;5037485;28;20040;-80
2024/02/01 14:02:50;;;;;;;0.20;0.10;;;;;;;;;;5028124;28;20072;-84
2024/02/01 14:05:17;;;;;;;0.20;0.10;;;;;;;;;;5047189;28;20096;-82
2024/02/01 14:07:43;;;;;;;0.20;0.00;;;;;;;;;;5025503;28;20531;-83
2024/02/01 14:10:10;;;;;;;0.20;0.10;;;;;;;;;;5030252;28;20049;-82
2024/02/01 14:12:37;;;;;;;0.20;0.00;;;;;;;;;;5041865;28;20049;-84
2024/02/01 14:15:03;;;;;;;0.20;0.00;;;;;;;;;;5025606;28;20037;-83
2024/02/01 14:17:29;;;;;;;0.20;0.20;;;;;;;;;;5030118;28;20106;-82
2024/02/01 14:19:56;;;;;;;0.20;0.10;;;;;;;;;;5045701;28;20135;-85
2024/02/01 14:22:23;;;;;;;0.20;0.10;;;;;;;;;;5022336;28;20095;-82
2024/02/01 14:24:49;;;;;;;0.30;0.10;;;;;;;;;;5044897;28;20048;-79
2024/02/01 14:27:15;;;;;;;0.20;0.10;;;;;;;;;;5027049;28;20049;-85
2024/02/01 14:29:44;;;;;;;0.20;0.10;;;;;;;;;;5022929;28;21102;-86
2024/02/01 14:32:13;;;;;;;0.20;0.10;;;;;;;;;;5042551;28;21665;-86
2024/02/01 14:34:49;;;;;;;0.20;0.00;;;;;;;;;;5019489;28;20049;-85
2024/02/01 14:37:16;;;;;;;0.20;0.00;;;;;;;;;;5026969;28;20052;-85
2024/02/01 14:39:43;;;;;;;0.20;0.00;;;;;;;;;;5028720;28;20063;-84
2024/02/01 14:42:09;;;;;;;0.20;0.10;;;;;;;;;;5031504;28;20126;-84
2024/02/01 14:44:36;;;;;;;0.20;0.10;;;;;;;;;;5018356;28;20218;-86
2024/02/01 14:47:03;;;;;;;0.20;0.10;;;;;;;;;;5029011;28;20051;-83
2024/02/01 14:49:31;;;;;;;0.20;0.10;;;;;;;;;;5030820;28;20049;-86
2024/02/01 14:51:57;;;;;;;0.20;0.10;;;;;;;;;;5020647;28;20129;-84
2024/02/01 14:54:23;;;;;;;0.20;0.08;;;;;;;;;;5043065;28;20108;-86
2024/02/01 14:56:53;;;;;;;0.20;0.10;;;;;;;;;;5012272;28;20071;-84
2024/02/01 14:59:19;;;;;;;0.20;0.00;;;;;;;;;;5024203;28;20112;-80
2024/02/01 15:01:45;;;;;;;0.20;0.10;;;;;;;;;;5025373;28;20064;-83
2024/02/01 15:04:11;;;;;;;0.20;0.00;;;;;;;;;;5028737;28;20049;-84
2024/02/01 15:06:38;;;;;;;0.20;0.00;;;;;;;;;;5028747;28;20068;-84
2024/02/01 15:09:06;;;;;;;0.20;0.10;;;;;;;;;;5029549;28;20037;-84
2024/02/01 15:11:32;;;;;;;0.20;0.10;;;;;;;;;;5015337;28;20052;-84
2024/02/01 15:13:59;;;;;;;0.25;0.20;;;;;;;;;;5031762;28;20049;-83
2024/02/01 15:16:26;;;;;;;0.20;0.10;;;;;;;;;;5032792;28;20108;-85
2024/02/01 15:18:52;;;;;;;0.20;0.10;;;;;;;;;;5021572;28;20481;-83
2024/02/01 15:21:19;;;;;;;0.20;0.00;;;;;;;;;;5034225;28;20123;-83
2024/02/01 15:23:46;;;;;;;0.20;0.10;;;;;;;;;;5030294;28;20273;-82
2024/02/01 15:26:12;;;;;;;0.20;0.10;;;;;;;;;;5034292;28;20049;-83
2024/02/01 15:28:39;;;;;;;0.20;0.00;;;;;;;;;;5032942;28;20055;-83
2024/02/01 15:31:10;;;;;;;0.20;0.20;;;;;;;;;;5033519;28;20048;-84
2024/02/01 15:33:37;;;;;;;2.15;1.75;;;;;;;;;;5036085;28;20489;-82
2024/02/01 15:36:05;;;;;;;0.20;0.00;;;;;;;;;;5032677;28;20076;-82
2024/02/01 15:38:31;;;;;;;0.20;0.10;;;;;;;;;;5047760;28;20045;-85
2024/02/01 15:40:58;;;;;;;0.20;0.10;;;;;;;;;;5030396;28;20081;-85
2024/02/01 15:43:24;;;;;;;0.20;0.10;;;;;;;;;;5028727;28;20056;-84
2024/02/01 15:45:50;;;;;;;0.20;0.10;;;;;;;;;;5048814;28;20041;-85
2024/02/01 15:48:17;;;;;;;0.20;0.10;;;;;;;;;;5033728;28;20045;-83
2024/02/01 15:50:44;;;;;;;0.20;0.00;;;;;;;;;;5055668;28;20564;-84